createdAt,value
2022-08-01T00:01:34.348Z,100.00
2022-08-01T00:04:03.039Z,100.00
2022-08-01T00:06:31.429Z,100.00
2022-08-01T00:08:59.798Z,100.00
2022-08-01T00:11:28.239Z,100.00
2022-08-01T00:13:56.547Z,100.00
2022-08-01T00:16:24.869Z,100.00
2022-08-01T00:18:55.731Z,100.00
2022-08-01T00:21:24.242Z,100.00
2022-08-01T00:23:52.550Z,100.00
2022-08-01T00:26:20.962Z,100.00
2022-08-01T00:28:49.273Z,100.00
2022-08-01T00:31:17.611Z,100.00
2022-08-01T00:33:45.920Z,100.00
2022-08-01T00:36:15.606Z,100.00
2022-08-01T00:38:43.890Z,100.00
2022-08-01T00:41:12.449Z,100.00
2022-08-01T00:43:40.782Z,100.00
2022-08-01T00:46:09.297Z,100.00
2022-08-01T00:48:37.710Z,100.00
2022-08-01T00:51:07.191Z,100.00
2022-08-01T00:53:50.677Z,100.00
2022-08-01T00:56:21.473Z,100.00
2022-08-01T00:58:50.401Z,100.00
2022-08-01T01:01:19.144Z,100.00
2022-08-01T01:04:03.048Z,100.00
2022-08-01T01:06:46.706Z,100.00
2022-08-01T01:09:27.631Z,100.00
2022-08-01T01:12:21.988Z,100.00
2022-08-01T01:14:58.886Z,100.00
2022-08-01T01:17:51.353Z,100.00
2022-08-01T01:20:23.731Z,100.00
2022-08-01T01:23:17.886Z,100.00
2022-08-01T01:26:10.870Z,100.00
2022-08-01T01:29:15.564Z,100.00
2022-08-01T01:31:49.924Z,100.00
2022-08-01T01:34:21.163Z,100.00
2022-08-01T01:36:51.897Z,100.00
2022-08-01T01:39:22.618Z,100.00
2022-08-01T01:41:53.514Z,100.00
2022-08-01T01:44:23.193Z,100.00
2022-08-01T01:46:53.714Z,100.00
2022-08-01T01:49:26.455Z,100.00
2022-08-01T01:52:03.847Z,100.00
2022-08-01T01:54:37.632Z,100.00
2022-08-01T01:57:08.853Z,100.00
2022-08-01T01:59:41.507Z,100.00
2022-08-01T02:02:11.518Z,100.00
2022-08-01T02:04:44.610Z,100.00
2022-08-01T02:07:16.593Z,100.00
2022-08-01T02:09:47.063Z,100.00
2022-08-01T02:12:16.421Z,100.00
2022-08-01T02:14:48.188Z,100.00
2022-08-01T02:17:21.988Z,100.00
2022-08-01T02:19:50.733Z,100.00
2022-08-01T02:22:28.001Z,100.00
2022-08-01T02:25:03.411Z,100.00
2022-08-01T02:27:47.932Z,100.00
2022-08-01T02:30:18.744Z,100.00
2022-08-01T02:32:51.096Z,100.00
2022-08-01T02:35:25.522Z,100.00
2022-08-01T02:37:55.071Z,100.00
2022-08-01T02:40:23.889Z,100.00
2022-08-01T02:42:55.503Z,100.00
2022-08-01T02:45:28.888Z,100.00
2022-08-01T02:48:04.179Z,100.00
2022-08-01T02:50:34.396Z,100.00
2022-08-01T02:53:03.952Z,100.00
2022-08-01T02:55:36.169Z,100.00
2022-08-01T02:58:05.122Z,100.00
2022-08-01T03:00:36.644Z,100.00
2022-08-01T03:03:09.029Z,100.00
2022-08-01T03:05:41.028Z,100.00
2022-08-01T03:08:14.725Z,100.00
2022-08-01T03:10:47.869Z,100.00
2022-08-01T03:13:20.072Z,100.00
2022-08-01T03:15:51.494Z,100.00
2022-08-01T03:18:20.734Z,100.00
2022-08-01T03:20:49.388Z,100.00
2022-08-01T03:23:19.301Z,100.00
2022-08-01T03:25:49.637Z,100.00
2022-08-01T03:28:19.311Z,100.00
2022-08-01T03:30:50.864Z,100.00
2022-08-01T03:33:19.353Z,100.00
2022-08-01T03:35:51.724Z,100.00
2022-08-01T03:38:23.635Z,100.00
2022-08-01T03:40:57.895Z,100.00
2022-08-01T03:43:33.791Z,100.00
2022-08-01T03:46:09.453Z,100.00
2022-08-01T03:48:42.811Z,100.00
2022-08-01T03:51:13.404Z,100.00
2022-08-01T03:53:44.610Z,100.00
2022-08-01T03:56:14.830Z,100.00
2022-08-01T03:58:50.079Z,100.00
2022-08-01T04:01:21.568Z,100.00
2022-08-01T04:03:50.520Z,100.00
2022-08-01T04:06:19.082Z,100.00
2022-08-01T04:08:56.698Z,100.00
2022-08-01T04:11:28.281Z,100.00
2022-08-01T04:13:58.302Z,100.00
2022-08-01T04:16:28.694Z,100.00
2022-08-01T04:18:57.078Z,100.00
2022-08-01T04:21:29.759Z,100.00
2022-08-01T04:24:06.289Z,100.00
2022-08-01T04:26:36.866Z,100.00
2022-08-01T04:29:08.766Z,100.00
2022-08-01T04:31:41.418Z,100.00
2022-08-01T04:34:11.468Z,100.00
2022-08-01T04:36:43.048Z,100.00
2022-08-01T04:39:12.606Z,100.00
2022-08-01T04:41:43.513Z,100.00
2022-08-01T04:44:12.189Z,100.00
2022-08-01T04:46:43.238Z,100.00
2022-08-01T04:49:13.180Z,100.00
2022-08-01T04:51:53.269Z,100.00
2022-08-01T04:54:22.551Z,100.00
2022-08-01T04:56:51.500Z,100.00
2022-08-01T04:59:37.556Z,100.00
2022-08-01T05:02:07.666Z,100.00
2022-08-01T05:04:36.491Z,100.00
2022-08-01T05:07:05.243Z,100.00
2022-08-01T05:09:34.297Z,100.00
2022-08-01T05:12:04.207Z,100.00
2022-08-01T05:14:33.753Z,100.00
2022-08-01T05:17:04.204Z,100.00
2022-08-01T05:19:34.904Z,100.00
2022-08-01T05:22:06.007Z,100.00
2022-08-01T05:24:35.248Z,100.00
2022-08-01T05:27:05.468Z,100.00
2022-08-01T05:29:35.856Z,100.00
2022-08-01T05:32:05.188Z,100.00
2022-08-01T05:34:35.405Z,100.00
2022-08-01T05:37:04.082Z,100.00
2022-08-01T05:39:32.575Z,100.00
2022-08-01T05:42:00.893Z,100.00
2022-08-01T05:44:29.237Z,100.00
2022-08-01T05:46:57.711Z,100.00
2022-08-01T05:49:26.110Z,100.00
2022-08-01T05:51:56.134Z,100.00
2022-08-01T05:54:24.486Z,100.00
2022-08-01T05:56:52.783Z,100.00
2022-08-01T05:59:21.625Z,100.00
2022-08-01T06:01:50.542Z,100.00
2022-08-01T06:04:18.876Z,100.00
2022-08-01T06:06:47.204Z,100.00
2022-08-01T06:09:16.879Z,100.00
2022-08-01T06:11:45.220Z,100.00
2022-08-01T06:14:13.526Z,100.00
2022-08-01T06:16:41.878Z,100.00
2022-08-01T06:19:10.194Z,100.00
2022-08-01T06:21:38.528Z,100.00
2022-08-01T06:24:07.373Z,100.00
2022-08-01T06:26:38.105Z,100.00
2022-08-01T06:29:06.402Z,100.00
2022-08-01T06:31:34.814Z,100.00
2022-08-01T06:34:03.132Z,100.00
2022-08-01T06:36:31.469Z,100.00
2022-08-01T06:38:59.768Z,100.00
2022-08-01T06:41:28.169Z,100.00
2022-08-01T06:43:57.835Z,100.00
2022-08-01T06:46:30.315Z,100.00
2022-08-01T06:49:00.879Z,100.00
2022-08-01T06:51:29.243Z,100.00
2022-08-01T06:53:57.583Z,100.00
2022-08-01T06:56:25.989Z,100.00
2022-08-01T06:58:57.290Z,100.00
2022-08-01T07:01:27.125Z,100.00
2022-08-01T07:03:55.600Z,100.00
2022-08-01T07:06:25.305Z,100.00
2022-08-01T07:08:54.127Z,100.00
2022-08-01T07:11:23.234Z,100.00
2022-08-01T07:13:51.945Z,100.00
2022-08-01T07:16:20.317Z,100.00
2022-08-01T07:18:50.028Z,100.00
2022-08-01T07:21:39.943Z,100.00
2022-08-01T07:24:11.965Z,100.00
2022-08-01T07:26:53.961Z,100.00
2022-08-01T07:29:25.194Z,100.00
2022-08-01T07:31:54.940Z,100.00
2022-08-01T07:34:25.920Z,100.00
2022-08-01T07:36:55.058Z,100.00
2022-08-01T07:39:23.366Z,100.00
2022-08-01T07:42:06.554Z,100.00
2022-08-01T07:44:37.295Z,100.00
2022-08-01T07:47:06.408Z,100.00
2022-08-01T07:49:40.326Z,100.00
2022-08-01T07:52:09.903Z,100.00
2022-08-01T07:54:38.971Z,100.00
2022-08-01T07:57:08.207Z,100.00
2022-08-01T07:59:37.318Z,99.54
2022-08-01T08:02:06.280Z,99.92
2022-08-01T08:04:36.610Z,100.00
2022-08-01T08:07:05.975Z,100.00
2022-08-01T08:09:37.987Z,100.00
2022-08-01T08:12:08.113Z,97.24
2022-08-01T08:14:37.173Z,96.53
2022-08-01T08:17:05.995Z,100.00
2022-08-01T08:19:39.049Z,100.00
2022-08-01T08:22:08.968Z,100.00
2022-08-01T08:24:45.635Z,100.00
2022-08-01T08:27:15.801Z,100.00
2022-08-01T08:29:45.025Z,100.00
2022-08-01T08:32:14.412Z,100.00
2022-08-01T08:34:44.671Z,100.00
2022-08-01T08:37:13.880Z,96.80
2022-08-01T08:39:42.735Z,94.32
2022-08-01T08:42:12.313Z,100.00
2022-08-01T08:44:43.432Z,100.00
2022-08-01T08:47:18.987Z,100.00
2022-08-01T08:49:52.340Z,100.00
2022-08-01T08:52:22.389Z,100.00
2022-08-01T08:54:52.453Z,100.00
2022-08-01T08:57:22.740Z,100.00
2022-08-01T08:59:53.072Z,100.00
2022-08-01T09:02:22.128Z,100.00
2022-08-01T09:04:53.497Z,100.00
2022-08-01T09:07:23.878Z,97.00
2022-08-01T09:09:52.950Z,100.00
2022-08-01T09:12:22.484Z,97.69
2022-08-01T09:14:54.484Z,99.97
2022-08-01T09:17:23.699Z,100.00
2022-08-01T09:19:57.734Z,97.90
2022-08-01T09:22:28.031Z,95.80
2022-08-01T09:25:01.357Z,94.71
2022-08-01T09:27:30.575Z,100.00
2022-08-01T09:30:11.774Z,100.00
2022-08-01T09:32:56.598Z,100.00
2022-08-01T09:35:29.931Z,98.55
2022-08-01T09:38:16.306Z,91.00
2022-08-01T09:40:54.076Z,92.18
2022-08-01T09:43:24.712Z,91.12
2022-08-01T09:45:54.976Z,93.30
2022-08-01T09:48:28.417Z,86.96
2022-08-01T09:51:07.310Z,91.79
2022-08-01T09:53:51.112Z,85.56
2022-08-01T09:56:22.727Z,87.89
2022-08-01T09:58:58.868Z,85.19
2022-08-01T10:01:36.066Z,87.58
2022-08-01T10:04:12.547Z,88.47
2022-08-01T10:06:45.342Z,82.30
2022-08-01T10:09:15.290Z,78.88
2022-08-01T10:11:45.485Z,78.10
2022-08-01T10:14:17.724Z,76.35
2022-08-01T10:16:53.687Z,72.97
2022-08-01T10:19:25.446Z,79.36
2022-08-01T10:22:00.509Z,75.81
2022-08-01T10:24:33.401Z,72.97
2022-08-01T10:27:09.009Z,71.40
2022-08-01T10:29:46.674Z,75.37
2022-08-01T10:32:34.274Z,69.65
2022-08-01T10:35:06.766Z,73.32
2022-08-01T10:37:51.839Z,72.80
2022-08-01T10:40:31.012Z,70.51
2022-08-01T10:43:00.846Z,74.61
2022-08-01T10:45:30.902Z,75.05
2022-08-01T10:48:06.727Z,76.07
2022-08-01T10:50:39.541Z,72.73
2022-08-01T10:53:16.081Z,73.28
2022-08-01T10:55:51.278Z,80.48
2022-08-01T10:58:24.620Z,80.09
2022-08-01T11:01:15.818Z,77.24
2022-08-01T11:03:57.524Z,75.35
2022-08-01T11:06:37.457Z,77.25
2022-08-01T11:09:18.910Z,77.85
2022-08-01T11:12:06.253Z,81.57
2022-08-01T11:14:55.375Z,81.70
2022-08-01T11:17:37.809Z,81.65
2022-08-01T11:20:09.559Z,82.53
2022-08-01T11:23:17.787Z,82.51
2022-08-01T11:26:10.895Z,82.04
2022-08-01T11:28:47.058Z,81.48
2022-08-01T11:31:37.920Z,79.94
2022-08-01T11:34:07.236Z,77.74
2022-08-01T11:36:58.511Z,75.36
2022-08-01T11:39:24.598Z,74.54
2022-08-01T11:41:55.697Z,75.00
2022-08-01T11:44:30.259Z,72.49
2022-08-01T11:47:09.102Z,74.40
2022-08-01T11:49:51.766Z,76.05
2022-08-01T11:52:25.601Z,75.83
2022-08-01T11:54:55.872Z,73.27
2022-08-01T11:57:34.292Z,75.39
2022-08-01T12:00:08.328Z,77.29
2022-08-01T12:02:37.745Z,77.45
2022-08-01T12:05:12.154Z,75.43
2022-08-01T12:07:42.303Z,79.37
2022-08-01T12:10:13.060Z,79.08
2022-08-01T12:12:47.278Z,76.78
2022-08-01T12:15:16.112Z,75.03
2022-08-01T12:17:59.029Z,77.68
2022-08-01T12:20:31.696Z,77.97
2022-08-01T12:23:02.775Z,78.09
2022-08-01T12:25:31.467Z,76.77
2022-08-01T12:28:05.182Z,73.02
2022-08-01T12:30:36.423Z,75.02
2022-08-01T12:33:06.519Z,77.39
2022-08-01T12:35:37.415Z,80.06
2022-08-01T12:38:08.419Z,77.51
2022-08-01T12:40:45.286Z,76.29
2022-08-01T12:43:27.103Z,74.03
2022-08-01T12:46:00.075Z,75.57
2022-08-01T12:48:30.121Z,81.34
2022-08-01T12:51:02.124Z,77.54
2022-08-01T12:53:40.751Z,76.59
2022-08-01T12:56:11.338Z,80.20
2022-08-01T12:58:41.840Z,79.91
2022-08-01T13:01:12.566Z,74.08
2022-08-01T13:03:41.854Z,78.75
2022-08-01T13:06:16.264Z,72.49
2022-08-01T13:08:46.649Z,72.24
2022-08-01T13:11:18.315Z,73.09
2022-08-01T13:13:50.439Z,73.91
2022-08-01T13:16:30.469Z,74.56
2022-08-01T13:19:07.878Z,71.61
2022-08-01T13:21:53.608Z,75.93
2022-08-01T13:24:27.872Z,74.07
2022-08-01T13:27:01.725Z,74.04
2022-08-01T13:29:38.807Z,71.30
2022-08-01T13:32:28.972Z,71.68
2022-08-01T13:35:04.978Z,73.41
2022-08-01T13:37:33.652Z,75.05
2022-08-01T13:40:02.375Z,73.20
2022-08-01T13:42:31.318Z,74.12
2022-08-01T13:45:01.344Z,72.94
2022-08-01T13:47:32.696Z,76.80
2022-08-01T13:50:04.080Z,76.33
2022-08-01T13:52:33.039Z,77.82
2022-08-01T13:55:02.209Z,78.69
2022-08-01T13:57:36.942Z,75.57
2022-08-01T14:00:10.316Z,74.79
2022-08-01T14:02:39.006Z,76.69
2022-08-01T14:05:08.709Z,76.26
2022-08-01T14:07:38.141Z,75.01
2022-08-01T14:10:19.398Z,76.73
2022-08-01T14:12:49.636Z,76.86
2022-08-01T14:15:36.722Z,76.16
2022-08-01T14:18:09.591Z,77.05
2022-08-01T14:20:39.232Z,79.44
2022-08-01T14:23:09.035Z,77.76
2022-08-01T14:26:02.978Z,77.48
2022-08-01T14:28:28.938Z,75.86
2022-08-01T14:30:59.431Z,76.32
2022-08-01T14:33:28.840Z,76.37
2022-08-01T14:36:05.898Z,78.16
2022-08-01T14:38:46.890Z,76.93
2022-08-01T14:41:15.813Z,76.42
2022-08-01T14:43:44.654Z,73.89
2022-08-01T14:46:14.819Z,75.11
2022-08-01T14:48:43.896Z,75.32
2022-08-01T14:51:12.651Z,77.78
2022-08-01T14:53:44.211Z,73.77
2022-08-01T14:56:19.563Z,75.67
2022-08-01T14:58:48.610Z,74.24
2022-08-01T15:01:19.153Z,72.34
2022-08-01T15:03:49.021Z,71.32
2022-08-01T15:06:17.764Z,72.20
2022-08-01T15:08:46.577Z,73.83
2022-08-01T15:11:15.302Z,74.63
2022-08-01T15:13:43.917Z,74.09
2022-08-01T15:16:12.856Z,75.24
2022-08-01T15:18:43.221Z,76.87
2022-08-01T15:21:24.703Z,75.70
2022-08-01T15:24:00.564Z,73.88
2022-08-01T15:26:30.751Z,78.37
2022-08-01T15:28:59.619Z,75.69
2022-08-01T15:31:28.296Z,75.70
2022-08-01T15:33:59.287Z,71.97
2022-08-01T15:36:30.454Z,71.42
2022-08-01T15:39:00.690Z,73.22
2022-08-01T15:41:29.327Z,76.51
2022-08-01T15:43:57.956Z,70.07
2022-08-01T15:46:26.590Z,71.18
2022-08-01T15:48:55.293Z,73.19
2022-08-01T15:51:25.319Z,69.39
2022-08-01T15:53:53.901Z,69.46
2022-08-01T15:56:22.552Z,75.14
2022-08-01T15:58:51.353Z,70.64
2022-08-01T16:01:20.482Z,70.15
2022-08-01T16:03:49.289Z,70.63
2022-08-01T16:06:17.917Z,76.29
2022-08-01T16:08:47.905Z,73.40
2022-08-01T16:11:16.729Z,76.99
2022-08-01T16:13:45.772Z,77.34
2022-08-01T16:16:15.328Z,71.93
2022-08-01T16:18:44.095Z,74.88
2022-08-01T16:21:12.862Z,71.66
2022-08-01T16:23:41.743Z,70.23
2022-08-01T16:26:12.066Z,74.78
2022-08-01T16:28:56.326Z,75.31
2022-08-01T16:31:37.555Z,76.59
2022-08-01T16:34:15.141Z,72.55
2022-08-01T16:36:43.979Z,72.10
2022-08-01T16:39:12.609Z,70.26
2022-08-01T16:41:42.612Z,69.19
2022-08-01T16:44:11.219Z,67.73
2022-08-01T16:46:39.887Z,67.43
2022-08-01T16:49:08.567Z,70.22
2022-08-01T16:51:47.720Z,67.71
2022-08-01T16:54:25.596Z,68.61
2022-08-01T16:56:58.016Z,68.44
2022-08-01T16:59:41.503Z,68.89
2022-08-01T17:02:11.914Z,70.09
2022-08-01T17:04:40.611Z,71.02
2022-08-01T17:07:09.655Z,71.88
2022-08-01T17:09:42.921Z,71.74
2022-08-01T17:12:18.161Z,70.27
2022-08-01T17:14:51.421Z,67.07
2022-08-01T17:17:20.298Z,69.33
2022-08-01T17:19:49.303Z,68.84
2022-08-01T17:22:18.390Z,68.58
2022-08-01T17:24:47.360Z,70.73
2022-08-01T17:27:17.756Z,69.56
2022-08-01T17:29:46.647Z,68.20
2022-08-01T17:32:15.515Z,67.87
2022-08-01T17:34:44.686Z,65.89
2022-08-01T17:37:13.403Z,67.56
2022-08-01T17:39:42.949Z,65.98
2022-08-01T17:42:12.532Z,64.95
2022-08-01T17:44:46.067Z,65.75
2022-08-01T17:47:34.684Z,65.09
2022-08-01T17:50:08.778Z,62.83
2022-08-01T17:52:38.743Z,63.21
2022-08-01T17:55:55.723Z,63.85
2022-08-01T17:57:56.890Z,64.23
2022-08-01T18:00:26.860Z,66.29
2022-08-01T18:02:55.472Z,67.34
2022-08-01T18:05:36.767Z,65.91
2022-08-01T18:08:06.753Z,63.69
2022-08-01T18:10:39.788Z,65.83
2022-08-01T18:13:08.756Z,65.21
2022-08-01T18:15:38.967Z,64.58
2022-08-01T18:18:07.857Z,65.11
2022-08-01T18:20:37.065Z,65.60
2022-08-01T18:23:08.750Z,67.52
2022-08-01T18:25:37.381Z,67.81
2022-08-01T18:28:29.290Z,69.75
2022-08-01T18:30:57.119Z,70.42
2022-08-01T18:33:25.886Z,69.16
2022-08-01T18:35:54.500Z,69.64
2022-08-01T18:38:24.235Z,70.28
2022-08-01T18:40:53.141Z,69.21
2022-08-01T18:43:22.006Z,68.75
2022-08-01T18:45:50.683Z,68.38
2022-08-01T18:48:20.755Z,68.78
2022-08-01T18:50:49.351Z,70.03
2022-08-01T18:53:18.805Z,69.38
2022-08-01T18:55:47.494Z,69.52
2022-08-01T18:58:16.140Z,70.17
2022-08-01T19:00:44.735Z,70.16
2022-08-01T19:03:13.796Z,72.24
2022-08-01T19:05:44.330Z,71.18
2022-08-01T19:08:12.937Z,69.94
2022-08-01T19:10:42.881Z,71.36
2022-08-01T19:13:11.827Z,72.82
2022-08-01T19:15:40.440Z,73.53
2022-08-01T19:18:10.634Z,75.97
2022-08-01T19:20:42.620Z,75.10
2022-08-01T19:23:26.665Z,74.20
2022-08-01T19:25:59.803Z,73.20
2022-08-01T19:28:29.899Z,73.71
2022-08-01T19:31:02.350Z,75.96
2022-08-01T19:33:33.671Z,77.16
2022-08-01T19:36:02.692Z,75.73
2022-08-01T19:38:33.883Z,74.12
2022-08-01T19:41:04.068Z,75.09
2022-08-01T19:43:38.427Z,74.82
2022-08-01T19:46:08.375Z,74.29
2022-08-01T19:48:53.051Z,73.12
2022-08-01T19:51:33.456Z,72.95
2022-08-01T19:54:07.340Z,72.32
2022-08-01T19:56:40.614Z,72.37
2022-08-01T19:59:09.655Z,72.53
2022-08-01T20:01:38.428Z,73.08
2022-08-01T20:04:07.077Z,73.16
2022-08-01T20:06:35.950Z,72.84
2022-08-01T20:09:06.763Z,72.62
2022-08-01T20:11:36.125Z,72.33
2022-08-01T20:14:05.018Z,72.67
2022-08-01T20:16:34.005Z,72.39
2022-08-01T20:19:02.625Z,72.92
2022-08-01T20:21:32.006Z,72.82
2022-08-01T20:24:03.273Z,73.18
2022-08-01T20:26:34.256Z,72.86
2022-08-01T20:29:05.370Z,73.91
2022-08-01T20:31:44.100Z,73.20
2022-08-01T20:34:16.089Z,73.69
2022-08-01T20:36:54.379Z,73.55
2022-08-01T20:39:26.673Z,73.82
2022-08-01T20:41:59.908Z,73.90
2022-08-01T20:44:31.802Z,73.95
2022-08-01T20:47:02.258Z,74.06
2022-08-01T20:49:32.147Z,74.05
2022-08-01T20:52:02.062Z,74.34
2022-08-01T20:54:41.598Z,74.39
2022-08-01T20:57:20.447Z,74.31
2022-08-01T20:59:55.487Z,74.33
2022-08-01T21:02:35.131Z,74.79
2022-08-01T21:05:07.463Z,74.66
2022-08-01T21:07:40.308Z,75.01
2022-08-01T21:10:10.902Z,75.02
2022-08-01T21:12:49.945Z,75.02
2022-08-01T21:15:30.759Z,74.98
2022-08-01T21:18:04.448Z,75.47
2022-08-01T21:20:34.910Z,75.47
2022-08-01T21:23:15.483Z,75.41
2022-08-01T21:25:44.958Z,75.85
2022-08-01T21:28:16.408Z,75.83
2022-08-01T21:30:53.847Z,75.87
2022-08-01T21:33:25.700Z,76.08
2022-08-01T21:36:00.178Z,76.07
2022-08-01T21:38:33.779Z,76.38
2022-08-01T21:41:07.966Z,76.26
2022-08-01T21:43:39.062Z,76.39
2022-08-01T21:46:08.202Z,76.60
2022-08-01T21:48:38.563Z,76.74
2022-08-01T21:51:17.961Z,76.54
2022-08-01T21:53:51.423Z,76.60
2022-08-01T21:56:29.559Z,76.97
2022-08-01T21:59:10.221Z,76.60
2022-08-01T22:01:52.424Z,77.05
2022-08-01T22:04:25.600Z,77.06
2022-08-01T22:06:55.538Z,76.96
2022-08-01T22:09:24.617Z,77.17
2022-08-01T22:12:00.802Z,77.33
2022-08-01T22:14:33.725Z,77.58
2022-08-01T22:17:02.413Z,77.71
2022-08-01T22:19:44.114Z,77.68
2022-08-01T22:22:34.217Z,77.69
2022-08-01T22:25:03.085Z,77.30
2022-08-01T22:28:02.789Z,77.45
2022-08-01T22:30:23.783Z,77.66
2022-08-01T22:33:15.246Z,77.92
2022-08-01T22:35:47.355Z,77.97
2022-08-01T22:38:17.852Z,77.96
2022-08-01T22:40:51.135Z,78.41
2022-08-01T22:43:30.489Z,78.39
2022-08-01T22:46:16.787Z,78.11
2022-08-01T22:48:50.043Z,77.91
2022-08-01T22:51:28.089Z,78.09
2022-08-01T22:54:04.055Z,78.19
2022-08-01T22:56:37.783Z,78.20
2022-08-01T22:59:14.837Z,78.46
2022-08-01T23:01:50.473Z,78.29
2022-08-01T23:04:29.801Z,78.37
2022-08-01T23:07:06.280Z,78.39
2022-08-01T23:09:53.279Z,78.63
2022-08-01T23:12:28.053Z,78.48
2022-08-01T23:14:58.751Z,78.37
2022-08-01T23:17:30.816Z,78.71
2022-08-01T23:20:01.259Z,78.62
2022-08-01T23:22:32.271Z,78.65
2022-08-01T23:25:04.502Z,78.35
2022-08-01T23:28:03.847Z,78.19
2022-08-01T23:30:27.695Z,78.11
2022-08-01T23:32:58.069Z,77.91
2022-08-01T23:35:27.299Z,78.04
2022-08-01T23:38:02.251Z,77.83
2022-08-01T23:40:33.030Z,77.91
2022-08-01T23:43:02.954Z,78.24
2022-08-01T23:46:01.820Z,78.20
2022-08-01T23:48:21.958Z,78.00
2022-08-01T23:50:52.628Z,78.00
2022-08-01T23:53:21.234Z,77.42
2022-08-01T23:55:49.948Z,77.64
2022-08-01T23:58:18.803Z,77.41
